createdAt,value
2022-09-07T00:01:03.320Z,99.90
2022-09-07T00:03:33.348Z,99.90
2022-09-07T00:06:05.256Z,99.90
2022-09-07T00:08:32.193Z,99.90
2022-09-07T00:11:01.750Z,99.90
2022-09-07T00:13:31.497Z,99.90
2022-09-07T00:15:58.561Z,99.90
2022-09-07T00:18:25.658Z,99.90
2022-09-07T00:21:07.302Z,99.90
2022-09-07T00:23:38.675Z,99.90
2022-09-07T00:26:09.712Z,99.90
2022-09-07T00:28:37.444Z,99.90
2022-09-07T00:31:05.141Z,99.90
2022-09-07T00:33:31.928Z,99.90
2022-09-07T00:35:59.252Z,99.90
2022-09-07T00:38:31.387Z,99.90
2022-09-07T00:41:00.514Z,99.90
2022-09-07T00:43:57.612Z,99.90
2022-09-07T00:46:31.803Z,99.90
2022-09-07T00:49:14.311Z,99.90
2022-09-07T00:51:56.048Z,99.90
2022-09-07T00:54:32.072Z,99.90
2022-09-07T00:57:04.422Z,99.90
2022-09-07T00:59:35.334Z,99.90
2022-09-07T01:02:02.779Z,99.90
2022-09-07T01:04:31.020Z,99.90
2022-09-07T01:06:57.998Z,99.90
2022-09-07T01:09:26.751Z,99.90
2022-09-07T01:11:54.871Z,99.90
2022-09-07T01:14:31.677Z,99.90
2022-09-07T01:17:12.795Z,99.90
2022-09-07T01:19:57.579Z,99.90
2022-09-07T01:23:00.608Z,99.90
2022-09-07T01:25:53.597Z,99.90
2022-09-07T01:28:26.586Z,99.90
2022-09-07T01:31:10.984Z,99.90
2022-09-07T01:33:44.414Z,99.90
2022-09-07T01:36:25.980Z,99.90
2022-09-07T01:39:02.731Z,99.90
2022-09-07T01:42:10.070Z,99.90
2022-09-07T01:44:48.787Z,99.90
2022-09-07T01:47:21.180Z,99.90
2022-09-07T01:50:11.912Z,99.90
2022-09-07T01:52:46.187Z,99.90
2022-09-07T01:55:43.304Z,99.90
2022-09-07T01:58:25.019Z,99.90
2022-09-07T02:01:03.552Z,99.90
2022-09-07T02:03:36.008Z,99.90
2022-09-07T02:06:13.572Z,99.90
2022-09-07T02:08:58.388Z,99.90
2022-09-07T02:11:32.825Z,99.90
2022-09-07T02:14:10.909Z,99.90
2022-09-07T02:17:02.181Z,99.90
2022-09-07T02:19:34.929Z,99.90
2022-09-07T02:22:07.881Z,99.90
2022-09-07T02:24:40.864Z,99.90
2022-09-07T02:27:13.773Z,99.90
2022-09-07T02:29:42.021Z,99.90
2022-09-07T02:32:08.801Z,99.90
2022-09-07T02:34:35.960Z,99.90
2022-09-07T02:37:05.578Z,99.90
2022-09-07T02:39:32.476Z,99.90
2022-09-07T02:42:04.021Z,99.90
2022-09-07T02:44:34.862Z,99.90
2022-09-07T02:47:33.438Z,99.90
2022-09-07T02:50:05.963Z,99.90
2022-09-07T02:52:44.748Z,99.90
2022-09-07T02:55:32.963Z,99.90
2022-09-07T02:58:37.422Z,99.90
2022-09-07T03:01:28.942Z,99.90
2022-09-07T03:04:18.621Z,99.90
2022-09-07T03:07:11.446Z,99.90
2022-09-07T03:09:45.956Z,99.90
2022-09-07T03:12:13.408Z,99.90
2022-09-07T03:14:44.258Z,99.90
2022-09-07T03:17:14.153Z,99.90
2022-09-07T03:19:40.966Z,99.90
2022-09-07T03:22:08.249Z,99.90
2022-09-07T03:24:35.008Z,99.90
2022-09-07T03:27:01.842Z,99.90
2022-09-07T03:29:28.585Z,99.90
2022-09-07T03:31:55.383Z,99.90
2022-09-07T03:34:22.230Z,99.90
2022-09-07T03:36:48.959Z,99.90
2022-09-07T03:39:15.754Z,99.90
2022-09-07T03:41:44.637Z,99.90
2022-09-07T03:44:11.813Z,99.90
2022-09-07T03:46:40.725Z,99.90
2022-09-07T03:49:07.471Z,99.90
2022-09-07T03:51:37.349Z,99.90
2022-09-07T03:54:37.732Z,99.90
2022-09-07T03:57:08.701Z,99.90
2022-09-07T03:59:37.691Z,99.90
2022-09-07T04:02:07.713Z,99.90
2022-09-07T04:04:34.512Z,99.90
2022-09-07T04:07:01.270Z,99.90
2022-09-07T04:09:28.064Z,99.90
2022-09-07T04:11:54.925Z,99.90
2022-09-07T04:14:23.850Z,99.90
2022-09-07T04:16:50.922Z,99.90
2022-09-07T04:19:18.444Z,99.90
2022-09-07T04:21:46.578Z,99.90
2022-09-07T04:24:14.979Z,99.90
2022-09-07T04:26:43.522Z,99.90
2022-09-07T04:29:11.427Z,99.90
2022-09-07T04:31:40.974Z,99.90
2022-09-07T04:34:10.660Z,99.90
2022-09-07T04:36:37.542Z,99.90
2022-09-07T04:39:07.500Z,99.90
2022-09-07T04:41:34.923Z,99.90
2022-09-07T04:44:03.052Z,99.90
2022-09-07T04:46:35.740Z,99.90
2022-09-07T04:49:05.938Z,99.90
2022-09-07T04:51:33.700Z,99.90
2022-09-07T04:54:02.891Z,99.90
2022-09-07T04:56:33.287Z,99.90
2022-09-07T04:59:01.932Z,99.90
2022-09-07T05:01:31.564Z,99.90
2022-09-07T05:04:03.421Z,99.90
2022-09-07T05:06:30.272Z,99.90
2022-09-07T05:08:58.719Z,99.90
2022-09-07T05:11:30.030Z,99.90
2022-09-07T05:13:58.972Z,99.90
2022-09-07T05:16:26.853Z,99.90
2022-09-07T05:18:58.519Z,99.90
2022-09-07T05:21:27.823Z,99.90
2022-09-07T05:23:58.591Z,99.90
2022-09-07T05:26:27.998Z,99.90
2022-09-07T05:31:44.408Z,99.90
2022-09-07T05:37:02.849Z,99.90
2022-09-07T05:39:30.762Z,99.90
2022-09-07T05:42:00.058Z,99.90
2022-09-07T05:44:46.361Z,99.90
2022-09-07T05:47:15.641Z,99.90
2022-09-07T05:49:42.658Z,99.90
2022-09-07T05:52:09.865Z,99.90
2022-09-07T05:54:39.285Z,99.90
2022-09-07T05:57:08.642Z,99.90
2022-09-07T05:59:37.528Z,99.90
2022-09-07T06:02:07.176Z,99.90
2022-09-07T06:04:34.026Z,99.90
2022-09-07T06:07:21.941Z,99.90
2022-09-07T06:12:37.007Z,99.90
2022-09-07T06:15:05.545Z,99.90
2022-09-07T06:17:32.977Z,99.90
2022-09-07T06:19:59.794Z,99.90
2022-09-07T06:22:31.187Z,99.90
2022-09-07T06:25:00.433Z,99.90
2022-09-07T06:27:27.221Z,99.90
2022-09-07T06:29:54.436Z,99.90
2022-09-07T06:35:11.573Z,99.90
2022-09-07T06:37:38.671Z,99.90
2022-09-07T06:40:08.894Z,99.90
2022-09-07T06:42:35.740Z,99.90
2022-09-07T06:45:02.748Z,99.90
2022-09-07T06:47:29.486Z,99.90
2022-09-07T06:49:59.117Z,99.90
2022-09-07T06:52:25.963Z,99.90
2022-09-07T06:55:00.233Z,99.90
2022-09-07T06:57:27.564Z,99.90
2022-09-07T06:59:54.337Z,99.90
2022-09-07T07:02:21.073Z,99.90
2022-09-07T07:04:50.473Z,99.90
2022-09-07T07:07:17.453Z,99.90
2022-09-07T07:09:44.313Z,99.90
2022-09-07T07:12:11.469Z,99.90
2022-09-07T07:14:44.891Z,99.90
2022-09-07T07:17:12.132Z,99.90
2022-09-07T07:19:41.384Z,99.90
2022-09-07T07:22:23.947Z,99.90
2022-09-07T07:24:55.791Z,99.90
2022-09-07T07:27:25.153Z,99.90
2022-09-07T07:29:52.641Z,99.90
2022-09-07T07:32:19.611Z,99.90
2022-09-07T07:34:46.406Z,99.90
2022-09-07T07:37:13.089Z,99.90
2022-09-07T07:42:29.256Z,99.90
2022-09-07T07:47:51.090Z,99.90
2022-09-07T07:50:34.157Z,99.90
2022-09-07T07:55:52.139Z,99.90
2022-09-07T07:58:19.539Z,99.90
2022-09-07T08:00:55.520Z,99.90
2022-09-07T08:03:24.479Z,99.90
2022-09-07T08:05:51.997Z,99.90
2022-09-07T08:08:21.988Z,99.90
2022-09-07T08:10:51.195Z,99.90
2022-09-07T08:13:19.103Z,99.90
2022-09-07T08:15:48.346Z,99.90
2022-09-07T08:18:17.998Z,99.90
2022-09-07T08:20:47.013Z,99.90
2022-09-07T08:23:14.630Z,99.90
2022-09-07T08:25:53.692Z,99.90
2022-09-07T08:28:23.823Z,99.90
2022-09-07T08:30:50.543Z,99.90
2022-09-07T08:33:17.366Z,99.90
2022-09-07T08:36:01.091Z,99.90
2022-09-07T08:38:32.626Z,99.90
2022-09-07T08:41:05.608Z,99.90
2022-09-07T08:43:49.146Z,99.90
2022-09-07T08:46:40.196Z,99.90
2022-09-07T08:49:16.744Z,99.90
2022-09-07T08:51:51.467Z,99.90
2022-09-07T08:54:18.625Z,99.90
2022-09-07T08:59:46.602Z,99.90
2022-09-07T09:02:35.413Z,99.90
2022-09-07T09:05:22.708Z,99.90
2022-09-07T09:08:08.209Z,99.90
2022-09-07T09:11:08.723Z,99.90
2022-09-07T09:13:50.208Z,99.90
2022-09-07T09:16:47.956Z,99.90
2022-09-07T09:19:44.828Z,99.90
2022-09-07T09:22:14.523Z,99.90
2022-09-07T09:24:48.564Z,99.90
2022-09-07T09:27:16.334Z,99.90
2022-09-07T09:29:43.152Z,99.90
2022-09-07T09:32:41.580Z,99.90
2022-09-07T09:35:35.253Z,99.90
2022-09-07T09:38:07.065Z,99.90
2022-09-07T09:40:36.159Z,99.90
2022-09-07T09:43:17.349Z,99.90
2022-09-07T09:48:42.922Z,99.90
2022-09-07T09:54:09.305Z,99.90
2022-09-07T09:56:38.060Z,99.90
2022-09-07T10:05:41.849Z,99.90
2022-09-07T10:08:52.072Z,99.90
2022-09-07T10:14:46.428Z,99.90
2022-09-07T10:17:35.141Z,99.90
2022-09-07T10:20:21.772Z,99.90
2022-09-07T10:22:51.719Z,99.90
2022-09-07T10:25:27.835Z,98.70
2022-09-07T10:28:22.107Z,97.20
2022-09-07T10:31:15.379Z,96.90
2022-09-07T10:34:27.214Z,96.30
2022-09-07T10:37:03.408Z,96.00
2022-09-07T10:40:02.053Z,95.90
2022-09-07T10:42:35.753Z,94.40
2022-09-07T10:45:17.322Z,94.60
2022-09-07T10:47:56.766Z,93.90
2022-09-07T10:50:42.595Z,94.20
2022-09-07T10:53:41.334Z,95.10
2022-09-07T10:56:21.066Z,94.90
2022-09-07T10:59:08.888Z,95.10
2022-09-07T11:01:54.140Z,93.50
2022-09-07T11:04:39.827Z,94.10
2022-09-07T11:07:26.573Z,95.00
2022-09-07T11:10:07.664Z,94.60
2022-09-07T11:12:38.052Z,94.20
2022-09-07T11:15:25.812Z,93.20
2022-09-07T11:18:18.082Z,93.30
2022-09-07T11:20:55.233Z,92.90
2022-09-07T11:23:36.819Z,93.00
2022-09-07T11:26:31.066Z,92.90
2022-09-07T11:29:29.431Z,92.70
2022-09-07T11:32:11.167Z,92.70
2022-09-07T11:34:52.162Z,91.90
2022-09-07T11:37:42.183Z,92.50
2022-09-07T11:40:21.444Z,91.40
2022-09-07T11:43:00.179Z,90.70
2022-09-07T11:45:48.439Z,90.50
2022-09-07T11:48:23.674Z,85.80
2022-09-07T11:51:15.655Z,81.30
2022-09-07T11:53:48.712Z,77.20
2022-09-07T11:56:45.752Z,75.40
2022-09-07T12:00:11.017Z,74.50
2022-09-07T12:03:22.902Z,74.00
2022-09-07T12:06:17.205Z,72.60
2022-09-07T12:09:14.672Z,67.80
2022-09-07T12:11:50.299Z,70.40
2022-09-07T12:14:55.243Z,72.10
2022-09-07T12:17:36.594Z,74.10
2022-09-07T12:20:20.943Z,75.40
2022-09-07T12:23:04.233Z,76.70
2022-09-07T12:25:32.418Z,77.70
2022-09-07T12:27:59.166Z,75.70
2022-09-07T12:30:25.881Z,76.90
2022-09-07T12:32:58.869Z,76.40
2022-09-07T12:35:28.603Z,77.50
2022-09-07T12:38:23.772Z,74.60
2022-09-07T12:41:02.754Z,74.40
2022-09-07T12:43:38.202Z,74.30
2022-09-07T12:46:05.203Z,76.40
2022-09-07T12:48:37.286Z,74.90
2022-09-07T12:51:12.710Z,72.10
2022-09-07T12:54:19.227Z,70.00
2022-09-07T12:57:28.946Z,72.40
2022-09-07T13:00:09.998Z,71.60
2022-09-07T13:02:53.787Z,71.40
2022-09-07T13:05:35.416Z,71.20
2022-09-07T13:08:20.496Z,72.30
2022-09-07T13:10:48.041Z,70.20
2022-09-07T13:13:14.919Z,69.00
2022-09-07T13:16:11.485Z,65.90
2022-09-07T13:18:40.903Z,67.50
2022-09-07T13:21:15.127Z,69.00
2022-09-07T13:23:43.636Z,68.30
2022-09-07T13:26:32.500Z,65.20
2022-09-07T13:29:03.211Z,65.70
2022-09-07T13:32:05.412Z,64.40
2022-09-07T13:34:34.819Z,64.10
2022-09-07T13:37:06.422Z,67.00
2022-09-07T13:39:42.021Z,65.10
2022-09-07T13:42:17.282Z,67.30
2022-09-07T13:45:00.557Z,67.10
2022-09-07T13:47:41.719Z,67.00
2022-09-07T13:50:18.723Z,67.70
2022-09-07T13:53:27.511Z,68.40
2022-09-07T13:56:05.291Z,69.80
2022-09-07T13:58:40.734Z,69.10
2022-09-07T14:01:13.281Z,70.70
2022-09-07T14:03:53.633Z,69.60
2022-09-07T14:06:25.121Z,71.10
2022-09-07T14:08:54.042Z,72.00
2022-09-07T14:11:40.575Z,72.20
2022-09-07T14:14:17.382Z,71.60
2022-09-07T14:17:07.171Z,69.90
2022-09-07T14:19:42.233Z,68.90
2022-09-07T14:22:16.391Z,67.80
2022-09-07T14:24:57.954Z,65.50
2022-09-07T14:27:33.260Z,64.90
2022-09-07T14:30:16.202Z,61.20
2022-09-07T14:32:44.152Z,58.30
2022-09-07T14:35:19.727Z,59.30
2022-09-07T14:37:47.946Z,59.80
2022-09-07T14:40:23.250Z,60.10
2022-09-07T14:42:52.597Z,61.10
2022-09-07T14:45:23.235Z,61.40
2022-09-07T14:47:57.044Z,61.70
2022-09-07T14:51:26.023Z,62.60
2022-09-07T14:53:49.046Z,64.50
2022-09-07T14:56:19.829Z,65.60
2022-09-07T14:58:49.491Z,66.40
2022-09-07T15:04:03.140Z,66.40
2022-09-07T15:07:01.841Z,68.20
2022-09-07T15:09:35.811Z,68.50
2022-09-07T15:12:09.872Z,68.70
2022-09-07T15:14:36.646Z,69.60
2022-09-07T15:19:52.620Z,72.80
2022-09-07T15:22:19.586Z,72.70
2022-09-07T15:24:52.250Z,73.10
2022-09-07T15:27:20.369Z,71.30
2022-09-07T15:29:47.126Z,71.50
2022-09-07T15:32:16.694Z,72.00
2022-09-07T15:34:44.961Z,72.10
2022-09-07T15:39:58.854Z,67.90
2022-09-07T15:45:12.802Z,69.40
2022-09-07T15:47:47.209Z,67.70
2022-09-07T15:50:17.922Z,68.40
2022-09-07T15:52:46.980Z,70.20
2022-09-07T15:55:14.439Z,70.30
2022-09-07T15:57:59.524Z,70.20
2022-09-07T16:00:33.283Z,71.20
2022-09-07T16:03:08.506Z,71.40
2022-09-07T16:05:39.941Z,72.70
2022-09-07T16:08:27.583Z,73.80
2022-09-07T16:11:05.850Z,74.40
2022-09-07T16:13:33.678Z,76.10
2022-09-07T16:16:07.213Z,76.80
2022-09-07T16:18:34.589Z,77.50
2022-09-07T16:21:12.924Z,78.10
2022-09-07T16:23:45.076Z,79.00
2022-09-07T16:26:14.342Z,80.30
2022-09-07T16:28:45.669Z,80.40
2022-09-07T16:31:19.218Z,80.70
2022-09-07T16:33:45.849Z,82.00
2022-09-07T16:36:15.991Z,82.10
2022-09-07T16:38:48.478Z,82.60
2022-09-07T16:41:21.020Z,83.00
2022-09-07T16:43:47.871Z,82.90
2022-09-07T16:46:21.783Z,83.70
2022-09-07T16:48:49.034Z,82.60
2022-09-07T16:51:19.689Z,80.60
2022-09-07T16:53:49.393Z,81.50
2022-09-07T16:56:18.920Z,81.80
2022-09-07T16:58:51.185Z,81.60
2022-09-07T17:01:20.657Z,81.60
2022-09-07T17:03:49.522Z,82.20
2022-09-07T17:06:17.482Z,82.50
2022-09-07T17:08:45.405Z,83.10
2022-09-07T17:11:14.725Z,84.00
2022-09-07T17:13:42.743Z,84.70
2022-09-07T17:16:20.003Z,86.60
2022-09-07T17:21:37.396Z,86.60
2022-09-07T17:24:09.880Z,86.80
2022-09-07T17:26:42.271Z,87.20
2022-09-07T17:29:13.832Z,87.30
2022-09-07T17:34:30.520Z,88.70
2022-09-07T17:37:01.188Z,89.20
2022-09-07T17:39:28.718Z,89.20
2022-09-07T17:41:55.612Z,90.50
2022-09-07T17:44:23.414Z,90.60
2022-09-07T17:46:50.603Z,90.70
2022-09-07T17:49:17.869Z,91.10
2022-09-07T17:51:45.491Z,91.20
2022-09-07T17:54:15.494Z,91.10
2022-09-07T17:56:42.760Z,90.90
2022-09-07T18:01:57.583Z,91.40
2022-09-07T18:04:24.801Z,91.70
2022-09-07T18:06:53.027Z,92.30
2022-09-07T18:09:21.971Z,93.00
2022-09-07T18:11:49.877Z,93.30
2022-09-07T18:14:17.798Z,93.70
2022-09-07T18:16:46.077Z,94.00
2022-09-07T18:19:13.352Z,94.20
2022-09-07T18:21:46.144Z,94.30
2022-09-07T18:24:24.286Z,94.70
2022-09-07T18:26:56.076Z,94.80
2022-09-07T18:29:29.248Z,94.60
2022-09-07T18:31:58.780Z,94.60
2022-09-07T18:34:25.762Z,94.90
2022-09-07T18:36:52.559Z,94.90
2022-09-07T18:39:19.215Z,94.90
2022-09-07T18:41:46.034Z,95.00
2022-09-07T18:47:05.425Z,95.60
2022-09-07T18:49:32.841Z,96.20
2022-09-07T18:54:52.073Z,96.20
2022-09-07T18:57:19.061Z,96.00
2022-09-07T18:59:50.518Z,96.00
2022-09-07T19:02:22.977Z,96.00
2022-09-07T19:07:38.858Z,96.10
2022-09-07T19:10:07.955Z,96.10
2022-09-07T19:12:34.822Z,96.00
2022-09-07T19:15:01.597Z,95.70
2022-09-07T19:17:31.275Z,95.70
2022-09-07T19:20:00.847Z,95.60
2022-09-07T19:22:27.461Z,95.20
2022-09-07T19:24:54.498Z,95.30
2022-09-07T19:27:27.125Z,94.90
2022-09-07T19:29:54.071Z,94.50
2022-09-07T19:32:21.991Z,94.40
2022-09-07T19:34:54.456Z,94.90
2022-09-07T19:37:25.794Z,94.90
2022-09-07T19:39:55.248Z,95.40
2022-09-07T19:42:23.687Z,95.80
2022-09-07T19:44:50.963Z,96.20
2022-09-07T19:47:17.908Z,96.20
2022-09-07T19:49:44.780Z,96.50
2022-09-07T19:52:13.696Z,97.10
2022-09-07T19:54:40.600Z,97.50
2022-09-07T19:57:07.684Z,97.80
2022-09-07T19:59:36.606Z,98.50
2022-09-07T20:02:03.604Z,98.40
2022-09-07T20:04:30.890Z,98.10
2022-09-07T20:06:58.082Z,97.80
2022-09-07T20:09:25.830Z,98.20
2022-09-07T20:11:52.656Z,98.30
2022-09-07T20:14:19.876Z,98.10
2022-09-07T20:16:46.654Z,97.80
2022-09-07T20:19:17.388Z,97.70
2022-09-07T20:21:44.275Z,97.90
2022-09-07T20:24:15.107Z,98.40
2022-09-07T20:26:42.231Z,98.30
2022-09-07T20:32:00.524Z,99.00
2022-09-07T20:34:33.861Z,99.70
2022-09-07T20:37:01.296Z,99.90
2022-09-07T20:39:28.288Z,99.90
2022-09-07T20:41:55.250Z,99.90
2022-09-07T20:44:21.999Z,99.90
2022-09-07T20:46:48.783Z,99.90
2022-09-07T20:49:17.900Z,99.90
2022-09-07T20:51:44.612Z,99.90
2022-09-07T20:54:11.768Z,99.90
2022-09-07T20:56:41.547Z,99.90
2022-09-07T20:59:08.518Z,99.90
2022-09-07T21:01:35.519Z,99.90
2022-09-07T21:04:03.950Z,99.90
2022-09-07T21:06:32.732Z,99.90
2022-09-07T21:09:02.067Z,99.90
2022-09-07T21:11:31.840Z,99.90
2022-09-07T21:14:17.942Z,99.90
2022-09-07T21:16:47.045Z,99.90
2022-09-07T21:19:16.187Z,99.90
2022-09-07T21:21:43.113Z,99.90
2022-09-07T21:24:19.444Z,99.90
2022-09-07T21:26:48.999Z,99.90
2022-09-07T21:29:24.200Z,99.90
2022-09-07T21:31:55.665Z,99.90
2022-09-07T21:34:23.248Z,99.90
2022-09-07T21:36:50.140Z,99.90
2022-09-07T21:39:17.107Z,99.90
2022-09-07T21:41:45.027Z,99.90
2022-09-07T21:44:15.408Z,99.90
2022-09-07T21:46:43.098Z,99.90
2022-09-07T21:49:09.761Z,99.90
2022-09-07T21:51:37.683Z,99.90
2022-09-07T21:54:06.882Z,99.90
2022-09-07T21:56:33.650Z,99.90
2022-09-07T21:59:04.586Z,99.90
2022-09-07T22:01:33.926Z,99.90
2022-09-07T22:04:06.856Z,99.90
2022-09-07T22:06:34.368Z,99.90
2022-09-07T22:09:02.081Z,99.90
2022-09-07T22:11:29.555Z,99.90
2022-09-07T22:14:03.537Z,99.90
2022-09-07T22:16:31.411Z,99.90
2022-09-07T22:19:01.027Z,99.90
2022-09-07T22:21:31.175Z,99.90
2022-09-07T22:24:00.263Z,99.90
2022-09-07T22:26:29.206Z,99.90
2022-09-07T22:28:58.557Z,99.90
2022-09-07T22:31:31.146Z,99.90
2022-09-07T22:34:01.745Z,99.90
2022-09-07T22:36:41.038Z,99.90
2022-09-07T22:39:13.898Z,99.90
2022-09-07T22:41:41.648Z,99.90
2022-09-07T22:44:12.050Z,99.90
2022-09-07T22:46:40.211Z,99.90
2022-09-07T22:49:09.896Z,99.90
2022-09-07T22:51:36.582Z,99.90
2022-09-07T22:54:05.673Z,99.90
2022-09-07T22:56:33.879Z,99.90
2022-09-07T22:59:03.994Z,99.90
2022-09-07T23:01:32.149Z,99.90
2022-09-07T23:04:01.525Z,99.90
2022-09-07T23:06:34.191Z,99.90
2022-09-07T23:09:04.708Z,99.90
2022-09-07T23:11:31.451Z,99.90
2022-09-07T23:14:00.232Z,99.90
2022-09-07T23:16:30.700Z,99.90
2022-09-07T23:18:59.132Z,99.90
2022-09-07T23:21:27.250Z,99.90
2022-09-07T23:23:56.834Z,99.90
2022-09-07T23:26:25.028Z,99.90
2022-09-07T23:28:53.017Z,99.90
2022-09-07T23:31:20.831Z,99.90
2022-09-07T23:33:47.835Z,99.90
2022-09-07T23:36:15.032Z,99.90
2022-09-07T23:38:41.810Z,99.90
2022-09-07T23:41:08.562Z,99.90
2022-09-07T23:43:35.632Z,99.90
2022-09-07T23:46:02.615Z,99.90
2022-09-07T23:48:31.797Z,99.90
2022-09-07T23:50:58.604Z,99.90
2022-09-07T23:53:25.446Z,99.90
2022-09-07T23:55:53.111Z,99.90
2022-09-07T23:58:21.674Z,99.90
